createdAt,value
2018-01-01T00:02:17.540Z,10.90
2018-01-01T00:04:45.061Z,10.90
2018-01-01T00:07:12.494Z,10.90
2018-01-01T00:09:39.912Z,10.90
2018-01-01T00:12:07.331Z,10.90
2018-01-01T00:14:34.825Z,10.90
2018-01-01T00:17:03.020Z,10.90
2018-01-01T00:19:30.442Z,10.80
2018-01-01T00:21:57.857Z,10.80
2018-01-01T00:24:25.344Z,10.90
2018-01-01T00:26:52.768Z,10.90
2018-01-01T00:29:20.969Z,10.90
2018-01-01T00:31:48.441Z,10.80
2018-01-01T00:34:15.857Z,10.90
2018-01-01T00:36:43.318Z,10.90
2018-01-01T00:39:10.853Z,10.90
2018-01-01T00:41:38.309Z,10.90
2018-01-01T00:44:05.786Z,10.90
2018-01-01T00:46:33.230Z,10.80
2018-01-01T00:49:01.442Z,10.70
2018-01-01T00:51:28.869Z,10.70
2018-01-01T00:53:56.290Z,10.70
2018-01-01T00:56:23.701Z,10.70
2018-01-01T00:58:51.125Z,10.60
2018-01-01T01:01:18.534Z,10.60
2018-01-01T01:03:46.042Z,10.50
2018-01-01T01:06:13.461Z,10.50
2018-01-01T01:08:41.002Z,10.50
2018-01-01T01:11:08.416Z,10.50
2018-01-01T01:13:35.850Z,10.40
2018-01-01T01:16:03.269Z,10.40
2018-01-01T01:18:31.499Z,10.50
2018-01-01T01:20:58.922Z,10.40
2018-01-01T01:23:27.104Z,10.50
2018-01-01T01:25:55.305Z,10.40
2018-01-01T01:28:23.481Z,10.50
2018-01-01T01:30:51.762Z,10.50
2018-01-01T01:33:19.176Z,10.40
2018-01-01T01:35:46.617Z,10.50
2018-01-01T01:38:14.794Z,10.50
2018-01-01T01:40:42.978Z,10.50
2018-01-01T01:43:11.240Z,10.50
2018-01-01T01:45:38.662Z,10.50
2018-01-01T01:48:06.127Z,10.50
2018-01-01T01:50:34.280Z,10.50
2018-01-01T01:53:02.454Z,10.50
2018-01-01T01:55:29.988Z,10.50
2018-01-01T01:57:57.433Z,10.50
2018-01-01T02:00:24.845Z,10.50
2018-01-01T02:02:52.283Z,10.50
2018-01-01T02:05:20.105Z,10.50
2018-01-01T02:07:47.506Z,10.40
2018-01-01T02:10:15.024Z,10.40
2018-01-01T02:12:42.446Z,10.40
2018-01-01T02:15:09.881Z,10.40
2018-01-01T02:17:37.286Z,10.40
2018-01-01T02:20:04.705Z,10.40
2018-01-01T02:22:32.134Z,10.30
2018-01-01T02:24:59.613Z,10.40
2018-01-01T02:27:26.996Z,10.40
2018-01-01T02:29:54.433Z,10.30
2018-01-01T02:32:32.789Z,10.30
2018-01-01T02:35:00.229Z,10.30
2018-01-01T02:37:27.644Z,10.30
2018-01-01T02:39:55.069Z,10.20
2018-01-01T02:42:22.505Z,10.20
2018-01-01T02:44:50.701Z,10.20
2018-01-01T02:47:18.878Z,10.20
2018-01-01T02:49:47.085Z,10.10
2018-01-01T02:52:14.558Z,10.10
2018-01-01T02:54:41.974Z,10.10
2018-01-01T02:57:09.501Z,10.00
2018-01-01T02:59:36.908Z,10.00
2018-01-01T03:02:04.344Z,9.90
2018-01-01T03:04:31.818Z,9.90
2018-01-01T03:06:59.280Z,9.80
2018-01-01T03:09:26.707Z,9.80
2018-01-01T03:11:54.882Z,9.70
2018-01-01T03:14:22.291Z,9.70
2018-01-01T03:16:49.708Z,9.70
2018-01-01T03:19:17.114Z,9.60
2018-01-01T03:21:44.537Z,9.60
2018-01-01T03:24:11.966Z,9.60
2018-01-01T03:26:39.365Z,9.60
2018-01-01T03:29:06.768Z,9.60
2018-01-01T03:31:34.979Z,9.50
2018-01-01T03:34:02.409Z,9.50
2018-01-01T03:36:29.816Z,9.50
2018-01-01T03:38:57.228Z,9.40
2018-01-01T03:41:24.634Z,9.40
2018-01-01T03:43:52.828Z,9.30
2018-01-01T03:46:20.254Z,9.30
2018-01-01T03:48:47.678Z,9.30
2018-01-01T03:51:15.070Z,9.30
2018-01-01T03:53:42.481Z,9.30
2018-01-01T03:56:10.685Z,9.30
2018-01-01T03:58:38.090Z,9.30
2018-01-01T04:01:05.497Z,9.30
2018-01-01T04:03:33.719Z,9.30
2018-01-01T04:06:01.874Z,9.30
2018-01-01T04:08:30.077Z,9.30
2018-01-01T04:10:57.485Z,9.30
2018-01-01T04:13:24.927Z,9.30
2018-01-01T04:15:52.323Z,9.30
2018-01-01T04:18:19.738Z,9.30
2018-01-01T04:20:47.941Z,9.20
2018-01-01T04:23:16.119Z,9.20
2018-01-01T04:25:43.597Z,9.20
2018-01-01T04:28:11.015Z,9.20
2018-01-01T04:30:38.422Z,9.20
2018-01-01T04:33:06.594Z,9.20
2018-01-01T04:35:34.811Z,9.20
2018-01-01T04:38:02.281Z,9.20
2018-01-01T04:40:29.700Z,9.20
2018-01-01T04:42:57.117Z,9.10
2018-01-01T04:45:24.553Z,9.10
2018-01-01T04:47:52.723Z,9.10
2018-01-01T04:50:20.136Z,9.10
2018-01-01T04:52:47.560Z,9.00
2018-01-01T04:55:14.976Z,9.00
2018-01-01T04:57:42.443Z,9.00
2018-01-01T05:00:09.854Z,9.00
2018-01-01T05:02:37.368Z,9.00
2018-01-01T05:05:04.848Z,8.90
2018-01-01T05:07:33.025Z,9.00
2018-01-01T05:10:00.431Z,9.00
2018-01-01T05:12:27.841Z,9.00
2018-01-01T05:14:56.012Z,9.00
2018-01-01T05:17:23.532Z,9.00
2018-01-01T05:19:50.929Z,9.00
2018-01-01T05:22:18.338Z,9.00
2018-01-01T05:24:46.525Z,9.00
2018-01-01T05:27:13.934Z,9.00
2018-01-01T05:29:41.337Z,9.00
2018-01-01T05:32:09.514Z,8.90
2018-01-01T05:34:36.925Z,8.90
2018-01-01T05:37:04.368Z,8.90
2018-01-01T05:39:31.803Z,8.90
2018-01-01T05:41:59.223Z,8.90
2018-01-01T05:44:27.398Z,8.90
2018-01-01T05:46:55.571Z,8.90
2018-01-01T05:49:22.985Z,8.90
2018-01-01T05:51:50.457Z,8.90
2018-01-01T05:54:17.857Z,8.90
2018-01-01T05:56:45.279Z,8.90
2018-01-01T05:59:12.680Z,8.90
2018-01-01T06:01:40.117Z,8.80
2018-01-01T06:04:07.529Z,8.90
2018-01-01T06:06:34.969Z,8.90
2018-01-01T06:09:02.418Z,9.00
2018-01-01T06:11:29.838Z,9.00
2018-01-01T06:13:57.237Z,9.00
2018-01-01T06:16:25.437Z,8.90
2018-01-01T06:18:52.850Z,8.90
2018-01-01T06:21:20.377Z,9.00
2018-01-01T06:23:47.791Z,9.00
2018-01-01T06:26:15.201Z,9.00
2018-01-01T06:28:42.681Z,9.00
2018-01-01T06:31:10.156Z,9.00
2018-01-01T06:33:37.619Z,9.00
2018-01-01T06:36:05.120Z,9.00
2018-01-01T06:38:32.552Z,9.00
2018-01-01T06:41:00.026Z,9.00
2018-01-01T06:43:27.442Z,9.00
2018-01-01T06:45:54.857Z,9.00
2018-01-01T06:48:22.270Z,9.00
2018-01-01T06:50:49.677Z,8.90
2018-01-01T06:53:17.896Z,8.90
2018-01-01T06:55:45.303Z,8.80
2018-01-01T06:58:12.709Z,8.80
2018-01-01T07:00:40.117Z,8.80
2018-01-01T07:03:07.539Z,8.70
2018-01-01T07:05:34.965Z,8.60
2018-01-01T07:10:35.261Z,8.40
2018-01-01T07:13:03.437Z,8.30
2018-01-01T07:15:31.000Z,8.30
2018-01-01T07:17:58.394Z,8.30
2018-01-01T07:20:26.571Z,8.30
2018-01-01T07:22:54.745Z,8.20
2018-01-01T07:25:22.922Z,8.20
2018-01-01T07:27:50.334Z,8.20
2018-01-01T07:30:17.741Z,8.20
2018-01-01T07:32:45.157Z,8.20
2018-01-01T07:35:12.573Z,8.20
2018-01-01T07:37:39.982Z,8.20
2018-01-01T07:40:08.151Z,8.10
2018-01-01T07:42:35.578Z,8.10
2018-01-01T07:45:02.981Z,8.10
2018-01-01T07:47:30.402Z,8.10
2018-01-01T07:49:57.872Z,8.10
2018-01-01T07:52:25.313Z,8.10
2018-01-01T07:54:53.479Z,8.10
2018-01-01T07:57:20.887Z,8.10
2018-01-01T07:59:48.360Z,8.10
2018-01-01T08:02:15.763Z,8.10
2018-01-01T08:04:43.189Z,8.10
2018-01-01T08:07:10.592Z,8.10
2018-01-01T08:09:37.989Z,8.10
2018-01-01T08:12:06.170Z,8.00
2018-01-01T08:14:33.578Z,8.00
2018-01-01T08:17:00.979Z,8.00
2018-01-01T08:19:28.377Z,8.00
2018-01-01T08:21:56.545Z,8.00
2018-01-01T08:24:23.964Z,8.00
2018-01-01T08:26:52.137Z,8.10
2018-01-01T08:29:19.547Z,8.10
2018-01-01T08:31:46.985Z,8.10
2018-01-01T08:34:14.442Z,8.20
2018-01-01T08:36:42.631Z,8.20
2018-01-01T08:39:10.076Z,8.20
2018-01-01T08:41:37.470Z,8.20
2018-01-01T08:44:04.882Z,8.10
2018-01-01T08:46:32.314Z,7.90
2018-01-01T08:49:00.390Z,7.50
2018-01-01T08:51:27.906Z,7.10
2018-01-01T08:53:55.677Z,7.00
2018-01-01T08:56:23.084Z,7.00
2018-01-01T08:58:51.269Z,6.90
2018-01-01T09:01:19.481Z,6.90
2018-01-01T09:03:46.909Z,6.90
2018-01-01T09:06:14.372Z,6.90
2018-01-01T09:08:41.781Z,6.80
2018-01-01T09:11:09.363Z,6.70
2018-01-01T09:13:36.835Z,6.70
2018-01-01T09:16:04.298Z,6.70
2018-01-01T09:18:31.828Z,6.80
2018-01-01T09:20:59.225Z,6.90
2018-01-01T09:23:27.397Z,7.00
2018-01-01T09:25:55.565Z,7.00
2018-01-01T09:28:23.079Z,7.00
2018-01-01T09:30:50.482Z,7.10
2018-01-01T09:33:17.920Z,7.10
2018-01-01T09:35:45.387Z,7.20
2018-01-01T09:38:12.928Z,7.20
2018-01-01T09:40:40.477Z,7.20
2018-01-01T09:43:07.973Z,7.30
2018-01-01T09:45:36.148Z,7.30
2018-01-01T09:48:04.315Z,7.30
2018-01-01T09:50:31.726Z,7.20
2018-01-01T09:52:59.128Z,7.20
2018-01-01T09:55:26.589Z,7.20
2018-01-01T09:57:54.011Z,7.30
2018-01-01T10:00:22.177Z,7.40
2018-01-01T10:02:49.702Z,7.40
2018-01-01T10:05:17.090Z,7.50
2018-01-01T10:07:44.541Z,7.50
2018-01-01T10:10:12.036Z,7.60
2018-01-01T10:12:39.453Z,7.60
2018-01-01T10:15:07.721Z,7.70
2018-01-01T10:17:35.115Z,7.70
2018-01-01T10:20:02.594Z,7.80
2018-01-01T10:22:30.058Z,7.80
2018-01-01T10:24:57.469Z,7.90
2018-01-01T10:27:24.865Z,7.90
2018-01-01T10:29:53.033Z,8.00
2018-01-01T10:32:20.504Z,8.00
2018-01-01T10:34:47.926Z,8.00
2018-01-01T10:37:15.334Z,8.10
2018-01-01T10:39:42.789Z,8.10
2018-01-01T10:42:10.206Z,8.10
2018-01-01T10:44:37.726Z,8.00
2018-01-01T10:47:05.129Z,8.00
2018-01-01T10:49:33.341Z,8.00
2018-01-01T10:52:01.385Z,8.00
2018-01-01T10:54:28.793Z,8.00
2018-01-01T10:56:56.297Z,8.00
2018-01-01T10:59:23.710Z,8.00
2018-01-01T11:01:52.055Z,8.10
2018-01-01T11:04:19.497Z,8.10
2018-01-01T11:06:46.922Z,8.10
2018-01-01T11:09:14.435Z,8.20
2018-01-01T11:11:42.585Z,8.40
2018-01-01T11:14:10.830Z,8.60
2018-01-01T11:16:38.322Z,8.60
2018-01-01T11:19:06.460Z,9.50
2018-01-01T11:21:34.758Z,9.50
2018-01-01T11:24:02.198Z,9.80
2018-01-01T11:26:30.369Z,9.50
2018-01-01T11:28:58.586Z,10.00
2018-01-01T11:31:25.995Z,10.00
2018-01-01T11:33:53.410Z,11.20
2018-01-01T11:36:20.917Z,12.00
2018-01-01T11:38:48.323Z,13.10
2018-01-01T11:41:15.859Z,14.10
2018-01-01T11:43:43.330Z,14.90
2018-01-01T11:46:10.995Z,15.30
2018-01-01T11:48:38.451Z,15.50
2018-01-01T11:51:05.897Z,16.20
2018-01-01T11:53:34.262Z,17.20
2018-01-01T11:56:01.710Z,17.20
2018-01-01T11:58:29.126Z,17.30
2018-01-01T12:00:57.309Z,16.60
2018-01-01T12:03:24.723Z,16.60
2018-01-01T12:05:52.178Z,16.80
2018-01-01T12:08:19.593Z,15.70
2018-01-01T12:10:47.101Z,16.00
2018-01-01T12:13:14.780Z,16.60
2018-01-01T12:15:42.191Z,17.30
2018-01-01T12:18:10.298Z,18.30
2018-01-01T12:20:38.477Z,18.50
2018-01-01T12:23:05.955Z,18.50
2018-01-01T12:25:34.953Z,14.30
2018-01-01T12:28:02.373Z,14.20
2018-01-01T12:30:29.811Z,13.30
2018-01-01T12:32:57.217Z,12.40
2018-01-01T12:35:24.638Z,11.60
2018-01-01T12:37:52.784Z,11.20
2018-01-01T12:40:20.273Z,11.20
2018-01-01T12:42:48.514Z,10.50
2018-01-01T12:45:16.021Z,10.40
2018-01-01T12:47:44.088Z,10.00
2018-01-01T12:50:11.513Z,9.80
2018-01-01T12:52:38.977Z,9.50
2018-01-01T12:55:06.437Z,9.40
2018-01-01T12:57:33.947Z,9.30
2018-01-01T13:00:01.338Z,9.30
2018-01-01T13:02:28.759Z,9.80
2018-01-01T13:04:56.235Z,10.40
2018-01-01T13:07:23.670Z,10.20
2018-01-01T13:09:51.100Z,10.00
2018-01-01T13:12:18.527Z,10.10
2018-01-01T13:14:45.946Z,10.10
2018-01-01T13:17:13.349Z,10.10
2018-01-01T13:19:40.778Z,10.30
2018-01-01T13:22:08.197Z,10.30
2018-01-01T13:24:35.615Z,10.10
2018-01-01T13:27:03.022Z,9.80
2018-01-01T13:29:30.506Z,9.50
2018-01-01T13:31:57.974Z,9.30
2018-01-01T13:34:25.415Z,9.20
2018-01-01T13:36:52.833Z,9.20
2018-01-01T13:39:20.269Z,9.10
2018-01-01T13:41:47.653Z,9.00
2018-01-01T13:44:15.097Z,8.90
2018-01-01T13:46:42.481Z,9.00
2018-01-01T13:49:09.962Z,9.00
2018-01-01T13:51:37.367Z,9.10
2018-01-01T13:54:04.810Z,9.30
2018-01-01T13:56:32.230Z,9.40
2018-01-01T13:59:00.435Z,9.30
2018-01-01T14:01:27.915Z,9.30
2018-01-01T14:03:56.089Z,9.00
2018-01-01T14:06:23.558Z,9.00
2018-01-01T14:08:51.723Z,8.60
2018-01-01T14:11:19.921Z,8.60
2018-01-01T14:13:48.110Z,8.50
2018-01-01T14:16:16.316Z,8.50
2018-01-01T14:18:43.747Z,8.40
2018-01-01T14:21:11.145Z,8.40
2018-01-01T14:23:38.586Z,8.40
2018-01-01T14:26:05.992Z,8.40
2018-01-01T14:28:33.394Z,8.40
2018-01-01T14:31:00.867Z,8.40
2018-01-01T14:33:28.225Z,8.40
2018-01-01T14:35:55.633Z,8.30
2018-01-01T14:38:23.849Z,8.20
2018-01-01T14:40:51.300Z,8.20
2018-01-01T14:43:18.754Z,8.20
2018-01-01T14:45:46.358Z,8.30
2018-01-01T14:48:13.846Z,8.30
2018-01-01T14:50:41.425Z,8.20
2018-01-01T14:53:08.835Z,8.30
2018-01-01T14:55:37.014Z,8.20
2018-01-01T14:58:05.260Z,8.20
2018-01-01T15:00:32.709Z,8.20
2018-01-01T15:03:00.124Z,8.20
2018-01-01T15:05:27.524Z,8.20
2018-01-01T15:07:54.934Z,8.20
2018-01-01T15:10:22.334Z,8.20
2018-01-01T15:12:49.760Z,8.20
2018-01-01T15:15:17.157Z,8.30
2018-01-01T15:17:46.078Z,8.20
2018-01-01T15:20:14.376Z,8.20
2018-01-01T15:22:42.594Z,8.20
2018-01-01T15:25:10.015Z,8.20
2018-01-01T15:27:37.541Z,8.20
2018-01-01T15:30:04.927Z,8.20
2018-01-01T15:32:32.317Z,8.20
2018-01-01T15:34:59.840Z,8.20
2018-01-01T15:37:27.254Z,8.20
2018-01-01T15:39:54.768Z,8.20
2018-01-01T15:42:22.333Z,8.10
2018-01-01T15:44:49.737Z,8.10
2018-01-01T15:47:17.151Z,8.00
2018-01-01T15:49:45.365Z,7.90
2018-01-01T15:52:12.803Z,7.90
2018-01-01T15:54:41.053Z,7.80
2018-01-01T15:57:08.688Z,7.80
2018-01-01T15:59:36.187Z,7.80
2018-01-01T16:02:03.624Z,7.80
2018-01-01T16:04:31.042Z,7.70
2018-01-01T16:06:58.447Z,7.70
2018-01-01T16:09:25.863Z,7.70
2018-01-01T16:11:53.304Z,7.70
2018-01-01T16:14:20.973Z,7.70
2018-01-01T16:16:49.146Z,7.70
2018-01-01T16:19:17.307Z,7.60
2018-01-01T16:21:44.727Z,7.60
2018-01-01T16:24:12.168Z,7.60
2018-01-01T16:26:39.582Z,7.60
2018-01-01T16:29:06.995Z,7.60
2018-01-01T16:31:34.398Z,7.50
2018-01-01T16:34:01.807Z,7.50
2018-01-01T16:36:29.213Z,7.50
2018-01-01T16:38:56.652Z,7.50
2018-01-01T16:41:24.827Z,7.40
2018-01-01T16:43:52.250Z,7.40
2018-01-01T16:46:19.661Z,7.40
2018-01-01T16:48:47.180Z,7.40
2018-01-01T16:51:14.594Z,7.40
2018-01-01T16:53:42.016Z,7.40
2018-01-01T16:56:09.476Z,7.30
2018-01-01T16:58:36.889Z,7.30
2018-01-01T17:01:04.338Z,7.20
2018-01-01T17:03:31.743Z,7.20
2018-01-01T17:05:59.150Z,7.20
2018-01-01T17:08:26.616Z,7.10
2018-01-01T17:10:54.073Z,7.10
2018-01-01T17:13:21.497Z,7.10
2018-01-01T17:15:48.905Z,7.00
2018-01-01T17:18:17.110Z,7.00
2018-01-01T17:20:44.535Z,7.00
2018-01-01T17:23:12.056Z,6.90
2018-01-01T17:25:39.473Z,6.90
2018-01-01T17:28:06.881Z,6.90
2018-01-01T17:30:34.302Z,6.90
2018-01-01T17:33:01.710Z,6.90
2018-01-01T17:35:29.168Z,6.90
2018-01-01T17:37:56.553Z,6.90
2018-01-01T17:40:23.969Z,6.90
2018-01-01T17:42:51.373Z,6.90
2018-01-01T17:45:18.780Z,6.90
2018-01-01T17:47:46.249Z,6.90
2018-01-01T17:50:13.674Z,6.90
2018-01-01T17:52:41.846Z,6.80
2018-01-01T17:55:10.027Z,6.70
2018-01-01T17:57:37.429Z,6.70
2018-01-01T18:00:04.839Z,6.70
2018-01-01T18:02:32.238Z,6.70
2018-01-01T18:04:59.644Z,6.60
2018-01-01T18:07:27.504Z,6.60
2018-01-01T18:09:55.659Z,6.60
2018-01-01T18:12:23.830Z,6.60
2018-01-01T18:14:51.261Z,6.60
2018-01-01T18:17:18.676Z,6.60
2018-01-01T18:19:46.089Z,6.60
2018-01-01T18:22:13.507Z,6.60
2018-01-01T18:24:40.941Z,6.70
2018-01-01T18:27:08.346Z,6.70
2018-01-01T18:29:35.762Z,6.70
2018-01-01T18:32:03.161Z,6.70
2018-01-01T18:34:30.596Z,6.80
2018-01-01T18:36:58.018Z,6.70
2018-01-01T18:39:25.428Z,6.70
2018-01-01T18:41:52.889Z,6.70
2018-01-01T18:44:20.372Z,6.60
2018-01-01T18:46:47.778Z,6.70
2018-01-01T18:49:15.189Z,6.60
2018-01-01T18:51:42.686Z,6.60
2018-01-01T18:54:10.098Z,6.70
2018-01-01T18:56:37.517Z,6.60
2018-01-01T18:59:04.949Z,6.70
2018-01-01T19:01:32.361Z,6.70
2018-01-01T19:03:59.765Z,6.70
2018-01-01T19:06:27.177Z,6.70
2018-01-01T19:08:55.355Z,6.70
2018-01-01T19:11:23.570Z,6.70
2018-01-01T19:13:50.985Z,6.70
2018-01-01T19:16:18.398Z,6.80
2018-01-01T19:18:45.819Z,6.70
2018-01-01T19:21:13.220Z,6.70
2018-01-01T19:23:41.429Z,6.70
2018-01-01T19:26:08.838Z,6.70
2018-01-01T19:28:36.259Z,6.80
2018-01-01T19:31:03.737Z,6.80
2018-01-01T19:33:31.307Z,6.80
2018-01-01T19:35:59.461Z,6.80
2018-01-01T19:38:27.686Z,6.80
2018-01-01T19:40:55.099Z,6.70
2018-01-01T19:43:22.509Z,6.80
2018-01-01T19:45:49.918Z,6.80
2018-01-01T19:48:17.343Z,6.80
2018-01-01T19:50:44.825Z,6.80
2018-01-01T19:53:12.241Z,6.80
2018-01-01T19:55:41.160Z,6.80
2018-01-01T19:58:09.335Z,6.80
2018-01-01T20:00:36.837Z,6.80
2018-01-01T20:03:04.249Z,6.80
2018-01-01T20:05:31.662Z,6.80
2018-01-01T20:07:59.824Z,6.80
2018-01-01T20:10:27.234Z,6.80
2018-01-01T20:12:54.657Z,6.80
2018-01-01T20:15:22.165Z,6.80
2018-01-01T20:17:49.769Z,6.80
2018-01-01T20:20:17.178Z,6.90
2018-01-01T20:22:45.361Z,6.90
2018-01-01T20:25:12.771Z,6.90
2018-01-01T20:27:40.213Z,6.90
2018-01-01T20:30:07.595Z,6.90
2018-01-01T20:32:35.013Z,6.80
2018-01-01T20:35:02.431Z,6.80
2018-01-01T20:37:29.836Z,6.80
2018-01-01T20:39:57.247Z,6.70
2018-01-01T20:42:25.452Z,6.60
2018-01-01T20:44:52.849Z,6.60
2018-01-01T20:47:20.248Z,6.60
2018-01-01T20:49:47.653Z,6.60
2018-01-01T20:52:15.086Z,6.60
2018-01-01T20:54:42.595Z,6.60
2018-01-01T20:57:10.027Z,6.60
2018-01-01T20:59:37.438Z,6.60
2018-01-01T21:02:04.909Z,6.60
2018-01-01T21:04:32.307Z,6.60
2018-01-01T21:06:59.709Z,6.60
2018-01-01T21:09:27.974Z,6.60
2018-01-01T21:11:55.378Z,6.50
2018-01-01T21:14:23.560Z,6.50
2018-01-01T21:16:51.749Z,6.60
2018-01-01T21:19:19.966Z,6.60
2018-01-01T21:21:47.425Z,6.60
2018-01-01T21:24:14.901Z,6.60
2018-01-01T21:26:43.051Z,6.60
2018-01-01T21:29:11.261Z,6.60
2018-01-01T21:31:38.767Z,6.60
2018-01-01T21:34:06.169Z,6.60
2018-01-01T21:36:34.361Z,6.60
2018-01-01T21:39:02.533Z,6.50
2018-01-01T21:41:29.985Z,6.50
2018-01-01T21:43:57.395Z,6.40
2018-01-01T21:46:24.881Z,6.50
2018-01-01T21:48:52.349Z,6.40
2018-01-01T21:51:19.745Z,6.40
2018-01-01T21:53:47.212Z,6.40
2018-01-01T21:56:14.649Z,6.40
2018-01-01T21:58:42.073Z,6.30
2018-01-01T22:01:09.485Z,6.40
2018-01-01T22:03:36.885Z,6.40
2018-01-01T22:06:04.332Z,6.40
2018-01-01T22:08:31.737Z,6.40
2018-01-01T22:10:59.981Z,6.40
2018-01-01T22:13:27.447Z,6.40
2018-01-01T22:15:54.913Z,6.40
2018-01-01T22:18:22.426Z,6.40
2018-01-01T22:20:49.870Z,6.50
2018-01-01T22:23:17.279Z,6.50
2018-01-01T22:25:45.479Z,6.60
2018-01-01T22:28:13.001Z,6.60
2018-01-01T22:30:40.485Z,6.70
2018-01-01T22:33:07.893Z,6.80
2018-01-01T22:35:35.399Z,6.80
2018-01-01T22:38:02.834Z,6.80
2018-01-01T22:40:31.006Z,6.80
2018-01-01T22:42:58.432Z,6.80
2018-01-01T22:45:25.861Z,6.90
2018-01-01T22:47:53.281Z,6.90
2018-01-01T22:50:20.689Z,6.90
2018-01-01T22:52:48.858Z,6.90
2018-01-01T22:55:16.273Z,6.80
2018-01-01T22:57:43.683Z,6.80
2018-01-01T23:00:11.209Z,6.80
2018-01-01T23:02:38.666Z,6.80
2018-01-01T23:05:06.073Z,6.80
2018-01-01T23:07:34.258Z,6.90
2018-01-01T23:10:01.674Z,6.80
2018-01-01T23:12:29.845Z,6.70
2018-01-01T23:14:58.013Z,6.60
2018-01-01T23:17:25.537Z,6.60
2018-01-01T23:19:52.946Z,6.50
2018-01-01T23:22:20.355Z,6.50
2018-01-01T23:24:48.520Z,6.60
2018-01-01T23:27:16.723Z,6.60
2018-01-01T23:29:44.941Z,6.60
2018-01-01T23:32:12.429Z,6.60
2018-01-01T23:34:39.869Z,6.60
2018-01-01T23:37:07.280Z,6.70
2018-01-01T23:39:34.688Z,6.70
2018-01-01T23:42:02.161Z,6.70
2018-01-01T23:44:29.573Z,6.70
2018-01-01T23:46:56.993Z,6.80
2018-01-01T23:49:25.169Z,6.80
2018-01-01T23:51:53.342Z,6.80
2018-01-01T23:54:22.440Z,6.80
2018-01-01T23:56:49.869Z,6.80
2018-01-01T23:59:17.321Z,6.90
